Time;durP1;ratioP1;P1;durP2;ratioP2;P2;SDS_P1;SDS_P2;PMS_P1;PMS_P2;Temp;Humidity;BMP_temperature;BMP_pressure;BME280_temperature;BME280_humidity;BME280_pressure;Samples;Min_cycle;Max_cycle;Signal;HPM_P1;HPM_P2
2022/06/30 00:02:07;;;;;;;178.05;164.95;;;22.90;66.90;;;;;;5035370;28;20237;-78
2022/06/30 00:04:35;;;;;;;177.98;164.77;;;22.90;66.90;;;;;;5034960;28;20055;-78
2022/06/30 00:07:02;;;;;;;178.23;165.02;;;22.80;66.90;;;;;;5018602;28;20111;-78
2022/06/30 00:09:29;;;;;;;177.68;164.43;;;22.80;67.10;;;;;;5053226;28;20053;-78
2022/06/30 00:11:56;;;;;;;181.60;167.90;;;22.80;67.30;;;;;;5035050;28;20180;-78
2022/06/30 00:14:23;;;;;;;179.90;166.40;;;22.70;67.20;;;;;;5035095;28;20103;-78
2022/06/30 00:16:51;;;;;;;174.73;161.63;;;22.70;67.20;;;;;;5034502;28;20158;-78
2022/06/30 00:19:18;;;;;;;173.40;160.07;;;22.70;67.30;;;;;;5034409;28;20054;-78
2022/06/30 00:21:45;;;;;;;175.50;162.35;;;22.60;67.20;;;;;;5034920;28;20513;-78
2022/06/30 00:24:12;;;;;;;176.07;162.82;;;22.60;67.40;;;;;;5032877;28;20060;-78
2022/06/30 00:26:39;;;;;;;178.00;164.70;;;22.60;67.50;;;;;;5033051;28;20490;-78
2022/06/30 00:29:06;;;;;;;174.30;161.18;;;22.50;67.50;;;;;;5033293;28;20049;-78
2022/06/30 00:31:33;;;;;;;176.50;163.20;;;22.50;67.50;;;;;;5032913;28;20131;-78
2022/06/30 00:34:02;;;;;;;174.32;161.00;;;22.50;67.50;;;;;;5032986;28;20490;-78
2022/06/30 00:36:29;;;;;;;174.55;161.15;;;22.50;67.60;;;;;;5033366;28;20054;-78
2022/06/30 00:38:56;;;;;;;169.77;156.90;;;22.40;67.60;;;;;;5034002;28;20052;-78
2022/06/30 00:41:23;;;;;;;169.88;156.70;;;22.30;68.00;;;;;;5035546;28;20058;-78
2022/06/30 00:43:51;;;;;;;171.30;158.35;;;22.30;67.50;;;;;;5034108;28;20060;-78
2022/06/30 00:46:18;;;;;;;172.95;159.80;;;22.20;67.40;;;;;;5034157;28;20092;-78
2022/06/30 00:48:45;;;;;;;173.68;160.57;;;22.20;67.40;;;;;;5052002;28;20120;-78
2022/06/30 00:51:13;;;;;;;175.82;162.52;;;22.20;67.40;;;;;;5034420;28;20061;-78
2022/06/30 00:53:42;;;;;;;176.82;163.15;;;22.10;67.30;;;;;;5052593;28;20084;-78
2022/06/30 00:56:10;;;;;;;172.52;159.23;;;22.10;67.30;;;;;;5035136;28;20463;-78
2022/06/30 00:58:40;;;;;;;172.18;158.98;;;22.10;67.50;;;;;;5034231;28;20539;-78
2022/06/30 01:01:08;;;;;;;172.02;158.70;;;22.10;67.70;;;;;;5034431;28;20053;-78
2022/06/30 01:03:36;;;;;;;170.00;156.80;;;22.00;67.80;;;;;;5034381;28;20139;-78
2022/06/30 01:06:04;;;;;;;170.07;156.90;;;22.00;68.00;;;;;;5052282;28;20111;-78
2022/06/30 01:08:33;;;;;;;168.80;155.60;;;22.00;67.90;;;;;;5033576;28;20084;-78
2022/06/30 01:13:46;;;;;;;161.80;148.98;;;21.90;68.00;;;;;;5037664;28;20087;-78
2022/06/30 01:16:13;;;;;;;163.88;150.85;;;21.90;68.00;;;;;;5053985;28;20064;-78
2022/06/30 01:18:40;;;;;;;162.15;149.10;;;21.80;68.00;;;;;;5054039;28;20131;-78
2022/06/30 01:21:08;;;;;;;170.77;157.73;;;21.80;68.00;;;;;;5072303;28;20649;-78
2022/06/30 01:23:36;;;;;;;174.02;160.70;;;21.70;68.10;;;;;;5054157;28;20135;-78
2022/06/30 01:26:03;;;;;;;172.10;158.90;;;21.70;68.30;;;;;;5053870;28;20107;-78
2022/06/30 01:28:30;;;;;;;172.32;158.57;;;21.60;68.30;;;;;;5071986;28;20050;-78
2022/06/30 01:30:58;;;;;;;170.70;157.55;;;21.60;68.40;;;;;;5071857;28;20060;-78
2022/06/30 01:33:25;;;;;;;169.95;156.55;;;21.60;68.60;;;;;;5054303;28;20072;-78
2022/06/30 01:35:51;;;;;;;173.68;160.38;;;21.60;68.60;;;;;;5054109;28;20102;-78
2022/06/30 01:38:19;;;;;;;170.93;157.82;;;21.50;68.70;;;;;;5053747;28;20430;-78
2022/06/30 01:40:48;;;;;;;171.18;158.00;;;21.50;68.60;;;;;;5053537;28;20593;-78
2022/06/30 01:43:16;;;;;;;166.52;153.73;;;21.50;68.70;;;;;;5053919;28;20056;-78
2022/06/30 01:45:43;;;;;;;165.45;152.73;;;21.50;68.70;;;;;;5054023;28;20056;-78
2022/06/30 01:48:10;;;;;;;171.00;157.70;;;21.50;68.70;;;;;;5034413;28;20511;-78
2022/06/30 01:50:38;;;;;;;167.32;154.40;;;21.40;68.90;;;;;;5053597;28;20640;-78
2022/06/30 01:53:05;;;;;;;168.02;155.05;;;21.40;69.00;;;;;;5053387;28;20132;-78
2022/06/30 01:55:32;;;;;;;168.15;155.07;;;21.30;69.00;;;;;;5053648;28;20132;-78
2022/06/30 01:58:01;;;;;;;170.68;157.48;;;21.30;69.20;;;;;;5074316;28;20095;-78
2022/06/30 02:00:28;;;;;;;166.57;153.57;;;21.30;69.30;;;;;;5040345;28;20052;-78
2022/06/30 02:02:57;;;;;;;169.95;156.75;;;21.30;69.40;;;;;;5057287;28;20061;-78
2022/06/30 02:05:25;;;;;;;166.32;153.50;;;21.20;69.50;;;;;;5040632;28;20572;-78
2022/06/30 02:07:52;;;;;;;169.38;156.00;;;21.20;69.60;;;;;;5057023;28;20460;-78
2022/06/30 02:10:22;;;;;;;170.73;157.60;;;21.20;69.60;;;;;;5056561;28;20073;-78
2022/06/30 02:12:51;;;;;;;166.73;153.30;;;21.20;69.80;;;;;;5056834;28;20080;-78
2022/06/30 02:15:21;;;;;;;169.25;156.02;;;21.20;69.70;;;;;;5056831;28;20053;-78
2022/06/30 02:17:51;;;;;;;169.55;156.30;;;21.10;69.80;;;;;;5056535;28;20156;-78
2022/06/30 02:20:21;;;;;;;168.35;155.10;;;21.10;70.00;;;;;;5040322;28;20049;-78
2022/06/30 02:22:50;;;;;;;168.93;155.95;;;21.10;70.00;;;;;;5056564;28;20449;-78
2022/06/30 02:25:17;;;;;;;170.25;157.15;;;21.10;70.10;;;;;;5057046;28;20045;-78
2022/06/30 02:27:44;;;;;;;170.57;157.10;;;21.10;70.10;;;;;;5056310;28;20071;-78
2022/06/30 02:30:12;;;;;;;173.35;159.88;;;21.00;70.20;;;;;;5039758;28;20052;-78
2022/06/30 02:32:40;;;;;;;168.30;155.00;;;21.00;70.20;;;;;;5056359;28;20072;-78
2022/06/30 02:35:09;;;;;;;170.48;157.00;;;21.00;70.30;;;;;;5074628;28;20479;-78
2022/06/30 02:37:36;;;;;;;170.10;156.48;;;21.00;70.20;;;;;;5055952;28;20131;-78
2022/06/30 02:40:03;;;;;;;162.88;150.07;;;20.90;70.30;;;;;;5074517;28;20041;-78
2022/06/30 02:42:30;;;;;;;164.35;151.55;;;20.90;70.50;;;;;;5041697;28;20791;-78
2022/06/30 02:44:57;;;;;;;176.88;152.27;;;20.90;70.50;;;;;;5036724;28;20065;-78
2022/06/30 02:47:30;;;;;;;165.77;150.50;;;20.90;70.60;;;;;;5036650;28;20539;-78
2022/06/30 02:49:59;;;;;;;164.10;150.27;;;20.90;70.70;;;;;;5020265;28;20046;-78
2022/06/30 02:52:26;;;;;;;162.15;149.15;;;20.80;70.80;;;;;;5054006;28;20057;-78
2022/06/30 02:54:53;;;;;;;166.52;153.27;;;20.80;70.70;;;;;;5036577;28;20141;-78
2022/06/30 02:57:20;;;;;;;165.68;152.55;;;20.80;71.10;;;;;;5035855;28;20046;-78
2022/06/30 02:59:47;;;;;;;162.65;149.90;;;20.80;71.10;;;;;;5019345;28;20049;-78
2022/06/30 03:02:13;;;;;;;165.07;152.05;;;20.80;71.30;;;;;;5036013;28;20045;-78
2022/06/30 03:04:41;;;;;;;161.95;149.05;;;20.70;71.20;;;;;;5036007;28;20045;-78
2022/06/30 03:07:09;;;;;;;166.38;153.10;;;20.70;71.30;;;;;;5035774;28;20100;-78
2022/06/30 03:09:36;;;;;;;163.68;150.30;;;20.70;71.30;;;;;;5054430;28;20061;-78
2022/06/30 03:12:04;;;;;;;163.77;150.68;;;20.70;71.30;;;;;;5036469;28;20057;-78
2022/06/30 03:14:31;;;;;;;164.60;151.38;;;20.60;71.50;;;;;;5042960;28;20494;-78
2022/06/30 03:16:58;;;;;;;166.30;153.05;;;20.60;71.60;;;;;;5055908;28;20511;-78
2022/06/30 03:19:25;;;;;;;163.43;150.27;;;20.60;71.70;;;;;;5039397;28;20584;-78
2022/06/30 03:21:53;;;;;;;164.02;150.80;;;20.50;71.80;;;;;;5055544;28;20148;-78
2022/06/30 03:24:22;;;;;;;160.48;147.63;;;20.50;71.90;;;;;;5056184;28;20152;-78
2022/06/30 03:26:49;;;;;;;162.40;149.38;;;20.50;72.00;;;;;;5056250;28;20584;-78
2022/06/30 03:29:17;;;;;;;160.95;148.07;;;20.40;72.00;;;;;;5055446;28;20076;-78
2022/06/30 03:31:44;;;;;;;160.80;147.82;;;20.40;72.10;;;;;;5055437;28;20131;-78
2022/06/30 03:34:11;;;;;;;165.02;151.85;;;20.40;72.40;;;;;;5039071;28;20103;-78
2022/06/30 03:36:38;;;;;;;162.27;149.27;;;20.40;72.50;;;;;;5055513;28;20056;-78
2022/06/30 03:39:05;;;;;;;160.43;147.32;;;20.30;72.70;;;;;;5055590;28;20053;-78
2022/06/30 03:41:33;;;;;;;163.25;150.18;;;20.30;72.70;;;;;;5055447;28;20550;-78
2022/06/30 03:44:00;;;;;;;158.00;145.27;;;20.30;73.50;;;;;;5073796;28;20049;-78
2022/06/30 03:46:27;;;;;;;156.45;143.77;;;20.20;73.50;;;;;;5055714;28;20052;-78
2022/06/30 03:48:54;;;;;;;159.25;146.70;;;20.20;73.50;;;;;;5035615;28;20053;-78
2022/06/30 03:51:21;;;;;;;155.05;142.25;;;20.20;73.80;;;;;;5035352;28;20139;-78
2022/06/30 03:53:48;;;;;;;156.65;144.27;;;20.20;73.90;;;;;;5053587;28;20076;-78
2022/06/30 03:56:16;;;;;;;158.13;145.43;;;20.10;73.80;;;;;;5035740;28;20399;-78
2022/06/30 03:58:44;;;;;;;155.90;143.50;;;20.10;73.90;;;;;;5035132;28;20158;-78
2022/06/30 04:01:11;;;;;;;152.35;140.05;;;20.10;74.30;;;;;;5053418;28;20506;-78
2022/06/30 04:03:38;;;;;;;149.95;137.52;;;20.10;74.50;;;;;;5035276;28;20050;-78
2022/06/30 04:06:05;;;;;;;156.32;143.63;;;20.10;74.70;;;;;;5035266;28;20413;-78
2022/06/30 04:08:32;;;;;;;159.10;144.52;;;20.00;74.80;;;;;;5052514;28;20107;-78
2022/06/30 04:10:59;;;;;;;153.93;141.50;;;20.00;74.90;;;;;;5035485;28;20089;-78
2022/06/30 04:13:26;;;;;;;156.82;143.98;;;20.00;75.10;;;;;;5018614;28;20049;-78
2022/06/30 04:15:55;;;;;;;149.52;137.73;;;20.00;75.30;;;;;;5053021;28;20053;-78
2022/06/30 04:18:22;;;;;;;148.23;136.43;;;20.00;75.60;;;;;;5034992;28;20495;-78
2022/06/30 04:20:49;;;;;;;153.48;141.57;;;19.90;75.60;;;;;;5062463;28;20087;-78
2022/06/30 04:23:15;;;;;;;150.15;138.35;;;19.90;75.90;;;;;;5055022;28;20057;-78
2022/06/30 04:25:42;;;;;;;153.02;140.80;;;19.90;76.40;;;;;;5055220;28;20120;-78
2022/06/30 04:28:10;;;;;;;150.95;139.15;;;19.90;76.40;;;;;;5054751;28;20057;-78
2022/06/30 04:33:22;;;;;;;153.90;141.57;;;19.90;77.20;;;;;;5038152;28;20049;-78
2022/06/30 04:35:49;;;;;;;156.07;143.70;;;19.80;77.40;;;;;;5073731;28;20519;-78
2022/06/30 04:38:16;;;;;;;153.15;140.85;;;19.80;77.90;;;;;;5054951;28;20049;-78
2022/06/30 04:43:27;;;;;;;152.07;138.23;;;19.80;78.60;;;;;;5055084;28;20045;-78
2022/06/30 04:45:54;;;;;;;150.82;138.60;;;19.80;79.20;;;;;;5055029;28;20502;-78
2022/06/30 04:48:23;;;;;;;151.15;138.63;;;19.80;79.40;;;;;;5072576;28;20057;-78
2022/06/30 04:50:50;;;;;;;152.60;139.90;;;19.80;80.30;;;;;;5054678;28;20584;-78
2022/06/30 04:53:17;;;;;;;156.73;144.02;;;19.70;80.60;;;;;;5030324;28;20049;-78
2022/06/30 04:55:44;;;;;;;150.60;138.50;;;19.80;80.80;;;;;;5034642;28;20537;-78
2022/06/30 04:58:11;;;;;;;150.10;138.00;;;19.80;81.10;;;;;;5034466;28;20049;-78
2022/06/30 05:00:38;;;;;;;150.00;137.70;;;19.80;81.40;;;;;;5038630;28;20049;-78
2022/06/30 05:03:05;;;;;;;154.60;142.30;;;19.80;81.70;;;;;;5055090;28;20049;-78
2022/06/30 05:05:33;;;;;;;154.68;142.48;;;19.80;81.60;;;;;;5055106;28;20076;-77
2022/06/30 05:08:00;;;;;;;149.07;137.23;;;19.80;82.00;;;;;;5054968;28;20041;-77
2022/06/30 05:10:27;;;;;;;150.00;137.90;;;19.80;82.20;;;;;;5055087;28;20060;-77
2022/06/30 05:12:54;;;;;;;151.15;139.18;;;19.80;82.70;;;;;;5054803;28;20057;-77
2022/06/30 05:15:21;;;;;;;150.60;138.70;;;19.80;83.10;;;;;;5054710;28;20057;-77
2022/06/30 05:17:48;;;;;;;153.30;141.30;;;19.80;83.40;;;;;;5072752;28;20049;-77
2022/06/30 05:20:15;;;;;;;153.63;141.48;;;19.80;84.10;;;;;;5054772;28;20048;-77
2022/06/30 05:22:43;;;;;;;155.43;143.30;;;19.80;84.50;;;;;;5054546;28;20049;-77
2022/06/30 05:27:55;;;;;;;155.43;142.65;;;19.80;85.70;;;;;;5030861;28;20045;-77
2022/06/30 05:30:22;;;;;;;154.00;141.80;;;19.80;85.90;;;;;;5050238;28;20515;-78
2022/06/30 05:32:49;;;;;;;157.27;144.68;;;19.80;86.10;;;;;;5056047;28;20053;-77
2022/06/30 05:35:16;;;;;;;147.05;134.95;;;19.80;86.70;;;;;;5073096;28;20085;-73
2022/06/30 05:37:44;;;;;;;149.35;137.25;;;19.80;87.80;;;;;;5056371;28;20605;-73
2022/06/30 05:40:12;;;;;;;157.55;144.73;;;19.90;88.60;;;;;;5070384;28;20057;-73
2022/06/30 05:42:39;;;;;;;152.07;139.48;;;19.90;88.90;;;;;;5055196;28;20115;-75
2022/06/30 05:45:07;;;;;;;152.00;139.55;;;19.90;89.30;;;;;;5057394;28;20494;-75
2022/06/30 05:47:34;;;;;;;152.85;140.32;;;20.00;89.50;;;;;;5056101;28;20119;-76
2022/06/30 05:50:01;;;;;;;153.30;140.80;;;20.00;89.90;;;;;;5056170;28;20951;-76
2022/06/30 05:52:28;;;;;;;152.25;140.05;;;20.00;89.80;;;;;;5056282;28;20049;-76
2022/06/30 05:55:02;;;;;;;150.93;138.40;;;20.10;90.00;;;;;;5059340;28;20099;-75
2022/06/30 05:57:29;;;;;;;155.23;142.98;;;20.10;90.20;;;;;;5056190;28;20053;-75
2022/06/30 05:59:56;;;;;;;153.77;141.35;;;20.20;90.30;;;;;;5052398;28;20467;-76
2022/06/30 06:02:23;;;;;;;156.30;143.57;;;20.20;90.50;;;;;;5054713;28;20678;-76
2022/06/30 06:04:50;;;;;;;155.63;142.63;;;20.30;90.50;;;;;;5071279;28;20470;-75
2022/06/30 06:07:17;;;;;;;161.02;148.00;;;20.30;90.60;;;;;;5038000;28;20048;-75
2022/06/30 06:09:44;;;;;;;156.10;143.02;;;20.30;90.70;;;;;;5055594;28;20049;-75
2022/06/30 06:12:12;;;;;;;158.10;145.32;;;20.40;90.90;;;;;;5055547;28;20187;-76
2022/06/30 06:14:39;;;;;;;157.88;145.13;;;20.40;90.90;;;;;;5073036;28;20059;-76
2022/06/30 06:17:06;;;;;;;161.00;148.02;;;20.50;91.00;;;;;;5072945;28;20060;-74
2022/06/30 06:19:33;;;;;;;155.30;142.80;;;20.50;91.00;;;;;;5057370;28;20115;-75
2022/06/30 06:22:00;;;;;;;155.52;142.98;;;20.60;91.00;;;;;;5039576;28;20048;-73
2022/06/30 06:24:27;;;;;;;157.45;144.85;;;20.60;91.10;;;;;;5075624;28;20053;-77
2022/06/30 06:26:54;;;;;;;156.73;144.15;;;20.70;91.20;;;;;;5074694;28;20077;-85
2022/06/30 06:29:22;;;;;;;155.93;143.27;;;20.70;91.20;;;;;;5040768;28;20107;-79
2022/06/30 06:31:49;;;;;;;154.10;141.88;;;20.80;91.40;;;;;;5039859;28;20100;-77
2022/06/30 06:34:16;;;;;;;152.27;140.07;;;20.80;91.40;;;;;;5055871;28;20056;-86
2022/06/30 06:36:43;;;;;;;156.10;143.85;;;20.90;91.50;;;;;;5038934;28;20053;-81
2022/06/30 06:39:10;;;;;;;153.80;141.68;;;20.90;91.50;;;;;;5040417;28;20483;-84
2022/06/30 06:41:37;;;;;;;153.50;141.52;;;21.00;91.50;;;;;;5040977;28;20131;-79
2022/06/30 06:44:04;;;;;;;152.52;140.48;;;21.00;91.50;;;;;;5075456;28;20559;-80
2022/06/30 06:46:33;;;;;;;156.43;144.02;;;21.10;91.50;;;;;;5057761;28;20056;-83
2022/06/30 06:49:02;;;;;;;153.55;141.65;;;21.10;91.70;;;;;;5056643;28;20132;-75
2022/06/30 06:51:30;;;;;;;155.65;143.38;;;21.10;91.70;;;;;;5075069;28;20079;-80
2022/06/30 06:53:58;;;;;;;159.75;147.45;;;21.20;91.60;;;;;;5057508;28;20541;-82
2022/06/30 06:56:25;;;;;;;159.52;147.25;;;21.20;91.50;;;;;;5058543;28;20061;-83
2022/06/30 06:58:53;;;;;;;156.50;144.40;;;21.30;91.60;;;;;;5041224;28;20052;-82
2022/06/30 07:01:20;;;;;;;160.20;147.55;;;21.30;91.70;;;;;;5040240;28;20127;-76
2022/06/30 07:03:48;;;;;;;157.23;144.85;;;21.40;91.70;;;;;;5056523;28;21082;-77
2022/06/30 07:06:15;;;;;;;162.57;149.88;;;21.40;92.00;;;;;;5075271;28;20076;-77
2022/06/30 07:08:42;;;;;;;163.68;151.02;;;21.50;91.90;;;;;;5039368;28;20077;-79
2022/06/30 07:11:09;;;;;;;155.85;143.82;;;21.60;91.80;;;;;;5073000;28;20706;-86
2022/06/30 07:13:36;;;;;;;157.82;145.63;;;21.60;91.90;;;;;;5039136;28;20096;-80
2022/06/30 07:16:04;;;;;;;164.07;151.27;;;21.70;91.90;;;;;;5051032;28;20037;-75
2022/06/30 07:18:31;;;;;;;155.48;143.02;;;21.70;91.90;;;;;;5053591;28;20049;-77
2022/06/30 07:20:59;;;;;;;155.15;142.85;;;21.80;91.90;;;;;;5072204;28;20055;-76
2022/06/30 07:23:26;;;;;;;162.10;149.35;;;21.80;92.00;;;;;;5072023;28;20053;-76
2022/06/30 07:25:53;;;;;;;162.02;149.60;;;21.90;91.80;;;;;;5072462;28;20076;-76
2022/06/30 07:28:20;;;;;;;164.52;151.93;;;21.90;91.70;;;;;;5054199;28;20098;-76
2022/06/30 07:30:47;;;;;;;163.27;150.75;;;21.90;91.70;;;;;;5073876;28;20057;-77
2022/06/30 07:33:14;;;;;;;163.60;150.98;;;22.00;91.60;;;;;;5056242;28;20069;-75
2022/06/30 07:35:41;;;;;;;163.73;151.40;;;22.00;91.60;;;;;;5038983;28;20045;-75
2022/06/30 07:38:10;;;;;;;166.57;152.88;;;22.10;91.60;;;;;;5055217;28;20053;-75
2022/06/30 07:40:37;;;;;;;163.90;151.38;;;22.20;91.50;;;;;;5056565;28;20439;-75
2022/06/30 07:43:05;;;;;;;163.25;150.73;;;22.20;91.50;;;;;;5074024;28;20115;-74
2022/06/30 07:45:32;;;;;;;165.68;153.10;;;22.20;91.60;;;;;;5051999;28;20133;-76
2022/06/30 07:47:59;;;;;;;172.23;158.65;;;22.30;91.70;;;;;;5055894;28;20049;-76
2022/06/30 07:50:26;;;;;;;171.52;158.60;;;22.30;91.70;;;;;;5045161;28;20049;-75
2022/06/30 07:52:53;;;;;;;169.30;156.68;;;22.40;92.00;;;;;;5055455;28;20131;-76
2022/06/30 07:55:21;;;;;;;169.25;156.55;;;22.40;92.00;;;;;;5072452;28;20076;-75
2022/06/30 07:57:49;;;;;;;169.48;156.77;;;22.50;92.10;;;;;;5055625;28;20041;-75
2022/06/30 08:00:18;;;;;;;176.55;163.45;;;22.50;92.20;;;;;;5037755;28;20048;-75
2022/06/30 08:02:45;;;;;;;175.40;162.07;;;22.60;92.20;;;;;;5053363;28;20049;-75
2022/06/30 08:05:12;;;;;;;173.85;160.45;;;22.70;92.20;;;;;;5053024;28;20489;-77
2022/06/30 08:07:39;;;;;;;172.63;159.73;;;22.70;91.90;;;;;;5053046;28;20092;-75
2022/06/30 08:10:08;;;;;;;166.35;153.77;;;22.80;92.20;;;;;;5053680;28;20081;-76
2022/06/30 08:12:36;;;;;;;183.52;154.27;;;22.90;92.40;;;;;;5072260;28;20543;-76
2022/06/30 08:15:04;;;;;;;163.25;150.27;;;22.90;92.40;;;;;;5072369;28;20574;-75
2022/06/30 08:17:32;;;;;;;168.52;155.57;;;23.00;92.40;;;;;;5055481;28;20110;-75
2022/06/30 08:19:59;;;;;;;166.45;153.73;;;23.10;92.40;;;;;;5054568;28;20127;-75
2022/06/30 08:22:26;;;;;;;169.68;156.70;;;23.10;92.50;;;;;;5039099;28;20048;-76
2022/06/30 08:24:55;;;;;;;168.02;155.38;;;23.20;92.30;;;;;;5073608;28;20053;-75
2022/06/30 08:27:22;;;;;;;173.02;160.15;;;23.30;92.30;;;;;;5054495;28;20687;-76
2022/06/30 08:29:50;;;;;;;170.07;157.55;;;23.30;92.20;;;;;;5055337;28;20056;-76
2022/06/30 08:32:17;;;;;;;178.05;164.70;;;23.40;92.30;;;;;;5052784;28;20199;-76
2022/06/30 08:34:44;;;;;;;180.35;166.82;;;23.50;92.30;;;;;;5073563;28;20650;-75
2022/06/30 08:37:12;;;;;;;178.05;164.70;;;23.60;92.40;;;;;;5072950;28;20519;-76
2022/06/30 08:42:26;;;;;;;177.45;163.75;;;23.70;92.00;;;;;;5070461;28;20087;-76
2022/06/30 08:47:39;;;;;;;176.50;162.82;;;23.80;91.30;;;;;;5066398;28;20076;-76
2022/06/30 08:50:08;;;;;;;184.23;170.80;;;23.90;90.90;;;;;;5072425;28;20057;-75
2022/06/30 08:52:44;;;;;;;191.20;177.20;;;23.90;90.80;;;;;;5050240;28;20052;-77
2022/06/30 08:55:13;;;;;;;181.38;168.07;;;24.00;90.80;;;;;;5052268;28;20054;-79
2022/06/30 08:57:41;;;;;;;189.27;175.45;;;24.10;90.90;;;;;;5049998;28;20482;-78
2022/06/30 09:00:12;;;;;;;187.88;174.07;;;24.10;91.00;;;;;;5052673;28;20047;-77
2022/06/30 09:02:39;;;;;;;186.38;172.90;;;24.20;90.80;;;;;;5052924;28;20057;-76
2022/06/30 09:05:07;;;;;;;190.60;176.65;;;24.30;91.00;;;;;;5052773;28;20052;-77
2022/06/30 09:07:34;;;;;;;194.15;180.05;;;24.40;91.10;;;;;;5052795;28;20041;-77
2022/06/30 09:10:02;;;;;;;198.20;183.63;;;24.40;90.80;;;;;;5053321;28;20467;-77
2022/06/30 09:12:29;;;;;;;197.80;183.85;;;24.50;90.60;;;;;;5053855;28;20686;-77
2022/06/30 09:14:56;;;;;;;198.32;183.90;;;24.60;90.30;;;;;;5053096;28;20813;-78
2022/06/30 09:17:26;;;;;;;199.80;185.38;;;24.60;90.10;;;;;;5055113;28;20069;-78
2022/06/30 09:19:57;;;;;;;198.15;184.00;;;24.60;90.20;;;;;;5055053;28;20081;-78
2022/06/30 09:22:26;;;;;;;197.15;183.00;;;24.70;90.20;;;;;;5054563;28;20510;-78
2022/06/30 09:24:59;;;;;;;191.90;178.20;;;24.80;90.50;;;;;;5054630;28;20136;-78
2022/06/30 09:27:27;;;;;;;193.95;180.20;;;24.80;90.50;;;;;;5051614;28;20080;-77
2022/06/30 09:29:56;;;;;;;192.18;178.48;;;24.90;90.20;;;;;;5035135;28;20050;-77
2022/06/30 09:32:23;;;;;;;198.00;183.90;;;25.00;89.90;;;;;;5053891;28;20076;-76
2022/06/30 09:34:53;;;;;;;199.18;185.02;;;25.10;89.60;;;;;;5072211;28;20053;-76
2022/06/30 09:37:22;;;;;;;200.68;186.48;;;25.10;88.90;;;;;;5053621;28;20123;-76
2022/06/30 09:39:51;;;;;;;190.60;177.13;;;25.20;88.10;;;;;;5072164;28;20045;-76
2022/06/30 09:42:36;;;;;;;197.82;183.93;;;25.20;87.00;;;;;;5072169;28;20060;-77
2022/06/30 09:45:04;;;;;;;198.73;184.55;;;25.30;86.50;;;;;;5054662;28;20075;-76
2022/06/30 09:47:31;;;;;;;202.30;187.95;;;25.40;86.70;;;;;;5054336;28;20048;-77
2022/06/30 09:50:04;;;;;;;204.93;190.52;;;25.40;83.80;;;;;;5072528;28;20068;-77
2022/06/30 09:52:31;;;;;;;199.32;184.30;;;25.50;82.90;;;;;;5054207;28;20060;-77
2022/06/30 09:54:59;;;;;;;198.82;184.23;;;25.50;82.60;;;;;;5054131;28;20057;-76
2022/06/30 09:57:28;;;;;;;198.40;184.10;;;25.50;82.10;;;;;;5072196;28;20530;-77
2022/06/30 09:59:59;;;;;;;202.15;187.95;;;25.50;81.80;;;;;;5072545;28;20132;-77
2022/06/30 10:02:34;;;;;;;200.70;186.60;;;25.60;82.50;;;;;;5070305;28;20527;-77
2022/06/30 10:05:04;;;;;;;203.55;189.25;;;25.60;82.20;;;;;;5050703;28;20106;-76
2022/06/30 10:07:34;;;;;;;203.88;189.38;;;25.70;82.20;;;;;;5053941;28;20138;-77
2022/06/30 10:10:02;;;;;;;205.35;187.90;;;25.70;81.90;;;;;;5050055;28;20143;-76
2022/06/30 10:12:29;;;;;;;206.27;191.73;;;25.80;81.80;;;;;;5052218;28;20041;-76
2022/06/30 10:14:57;;;;;;;204.20;189.98;;;25.80;81.20;;;;;;5069927;28;20053;-76
2022/06/30 10:17:26;;;;;;;212.27;193.95;;;25.90;81.70;;;;;;5052556;28;20112;-77
2022/06/30 10:19:55;;;;;;;207.95;193.10;;;25.90;82.00;;;;;;5055430;28;20041;-77
2022/06/30 10:22:25;;;;;;;209.98;194.23;;;26.00;81.90;;;;;;5053026;28;20224;-76
2022/06/30 10:24:54;;;;;;;206.48;191.77;;;26.10;82.90;;;;;;5074334;28;20522;-76
2022/06/30 10:27:25;;;;;;;205.20;190.35;;;26.20;81.10;;;;;;5051237;28;20527;-76
2022/06/30 10:29:56;;;;;;;201.77;187.88;;;26.30;81.40;;;;;;5075202;28;20535;-75
2022/06/30 10:32:37;;;;;;;186.88;173.27;;;26.30;82.00;;;;;;5054663;28;20061;-76
2022/06/30 10:35:12;;;;;;;202.45;188.32;;;26.40;81.70;;;;;;5057511;28;20257;-80
2022/06/30 10:37:48;;;;;;;195.15;181.65;;;26.40;81.70;;;;;;5055458;28;20404;-80
2022/06/30 10:40:26;;;;;;;190.45;177.25;;;26.50;80.60;;;;;;5075998;28;20947;-84
2022/06/30 10:42:57;;;;;;;199.35;185.73;;;26.50;81.10;;;;;;5040986;28;20049;-90
2022/06/30 10:45:44;;;;;;;197.75;184.27;;;26.50;80.40;;;;;;5044455;28;20159;-86
2022/06/30 10:48:11;;;;;;;192.27;179.23;;;26.50;80.40;;;;;;5039149;28;20128;-83
2022/06/30 10:50:40;;;;;;;196.05;182.52;;;26.50;77.50;;;;;;5056497;28;20052;-81
2022/06/30 10:53:10;;;;;;;196.57;183.18;;;26.60;76.40;;;;;;5055294;28;20162;-77
2022/06/30 10:55:44;;;;;;;187.38;174.13;;;26.60;76.20;;;;;;5073857;28;20051;-77
2022/06/30 10:58:12;;;;;;;196.25;182.70;;;26.60;74.80;;;;;;5073312;28;20560;-80
2022/06/30 11:00:48;;;;;;;196.50;183.15;;;26.70;73.60;;;;;;5038878;28;20049;-76
2022/06/30 11:04:00;;;;;;;195.32;182.23;;;26.80;74.80;;;;;;5036580;28;20053;-87
2022/06/30 11:06:58;;;;;;;178.38;165.15;;;26.80;74.60;;;;;;5015522;28;20083;-77
2022/06/30 11:10:05;;;;;;;186.45;172.93;;;26.80;75.00;;;;;;5047334;28;20045;-77
2022/06/30 11:12:56;;;;;;;200.55;186.93;;;26.80;74.20;;;;;;5051303;28;20046;-75
2022/06/30 11:15:44;;;;;;;202.35;188.25;;;26.80;75.10;;;;;;5054601;28;20056;-76
2022/06/30 11:18:12;;;;;;;197.00;183.60;;;26.80;74.40;;;;;;5034093;28;20046;-76
2022/06/30 11:20:43;;;;;;;204.15;190.05;;;26.80;75.00;;;;;;5058189;28;20352;-76
2022/06/30 11:23:11;;;;;;;205.85;191.57;;;26.80;76.30;;;;;;5073020;28;20079;-75
2022/06/30 11:28:27;;;;;;;183.90;170.80;;;26.70;75.00;;;;;;5071646;28;20049;-75
2022/06/30 11:30:54;;;;;;;191.88;178.65;;;26.70;75.80;;;;;;5074168;28;20063;-79
2022/06/30 11:33:22;;;;;;;191.05;177.85;;;26.80;75.10;;;;;;5057124;28;20136;-75
2022/06/30 11:36:02;;;;;;;193.63;180.18;;;26.80;73.60;;;;;;5056323;28;20123;-76
2022/06/30 11:38:30;;;;;;;185.50;172.48;;;26.80;73.70;;;;;;5056190;28;20045;-73
2022/06/30 11:41:54;;;;;;;191.00;178.07;;;26.70;72.40;;;;;;5056149;28;20088;-76
2022/06/30 11:43:49;;;;;;;193.40;180.23;;;26.70;73.20;;;;;;5056387;28;20052;-76
2022/06/30 11:46:16;;;;;;;201.73;187.98;;;26.70;72.60;;;;;;5055568;28;20132;-79
2022/06/30 11:48:45;;;;;;;205.90;191.60;;;26.70;71.80;;;;;;5055755;28;20275;-77
2022/06/30 11:51:12;;;;;;;199.80;186.27;;;26.70;70.70;;;;;;5055740;28;20068;-75
2022/06/30 11:53:41;;;;;;;190.55;177.75;;;26.70;71.20;;;;;;5071188;28;20067;-74
2022/06/30 11:56:08;;;;;;;204.05;190.73;;;26.70;68.00;;;;;;5055325;28;20066;-74
2022/06/30 11:58:35;;;;;;;193.30;180.45;;;26.70;68.30;;;;;;5054983;28;20060;-77
2022/06/30 12:01:13;;;;;;;190.88;177.65;;;26.70;67.80;;;;;;5074482;28;20063;-78
2022/06/30 12:03:43;;;;;;;193.27;179.95;;;26.70;68.10;;;;;;5039774;28;20485;-77
2022/06/30 12:06:11;;;;;;;194.57;181.60;;;26.70;70.70;;;;;;5071540;28;20064;-74
2022/06/30 12:08:39;;;;;;;193.13;180.05;;;26.80;70.40;;;;;;5055187;28;20057;-75
2022/06/30 12:11:07;;;;;;;193.18;180.40;;;26.90;67.80;;;;;;5042142;28;20045;-72
2022/06/30 12:13:35;;;;;;;194.50;181.65;;;26.90;66.20;;;;;;4943395;28;20096;-78
2022/06/30 12:16:05;;;;;;;196.75;183.50;;;27.00;65.90;;;;;;5031232;28;20054;-78
2022/06/30 12:18:33;;;;;;;198.63;185.32;;;27.00;66.30;;;;;;5021558;28;20042;-78
2022/06/30 12:21:00;;;;;;;193.50;180.40;;;27.10;65.40;;;;;;5032748;28;20495;-77
2022/06/30 12:23:28;;;;;;;195.80;182.20;;;27.10;65.20;;;;;;5032336;28;20404;-78
2022/06/30 12:25:56;;;;;;;188.88;176.00;;;27.20;66.00;;;;;;5033212;28;20046;-77
2022/06/30 12:28:25;;;;;;;198.93;185.23;;;27.20;64.40;;;;;;5027201;28;20050;-76
2022/06/30 12:30:53;;;;;;;196.23;183.02;;;27.20;63.70;;;;;;5024681;28;20042;-77
2022/06/30 12:33:22;;;;;;;196.85;183.85;;;27.20;64.00;;;;;;5032449;28;20045;-76
2022/06/30 12:35:49;;;;;;;192.35;179.15;;;27.20;65.20;;;;;;5012502;28;20069;-79